createdAt,value
2022-12-08T00:00:08.378Z,-5.83
2022-12-08T00:02:46.827Z,-5.81
2022-12-08T00:05:38.254Z,-5.81
2022-12-08T00:08:29.521Z,-5.82
2022-12-08T00:11:01.935Z,-5.78
2022-12-08T00:13:34.628Z,-5.78
2022-12-08T00:16:09.064Z,-5.79
2022-12-08T00:18:41.565Z,-5.80
2022-12-08T00:21:14.036Z,-5.84
2022-12-08T00:23:46.521Z,-5.87
2022-12-08T00:26:18.994Z,-5.80
2022-12-08T00:28:51.483Z,-5.79
2022-12-08T00:31:25.374Z,-5.83
2022-12-08T00:33:58.401Z,-5.80
2022-12-08T00:36:30.981Z,-5.78
2022-12-08T00:39:03.577Z,-5.88
2022-12-08T00:41:54.679Z,-5.79
2022-12-08T00:44:27.213Z,-5.78
2022-12-08T00:47:01.230Z,-5.77
2022-12-08T00:49:33.680Z,-5.79
2022-12-08T00:52:06.637Z,-5.90
2022-12-08T00:54:39.137Z,-5.82
2022-12-08T00:57:11.793Z,-5.76
2022-12-08T00:59:44.308Z,-5.75
2022-12-08T01:02:18.080Z,-5.73
2022-12-08T01:04:50.536Z,-5.81
2022-12-08T01:07:22.985Z,-5.75
2022-12-08T01:09:55.371Z,-5.82
2022-12-08T01:12:29.333Z,-5.77
2022-12-08T01:15:02.782Z,-5.76
2022-12-08T01:17:38.813Z,-5.75
2022-12-08T01:20:12.008Z,-5.75
2022-12-08T01:22:44.339Z,-5.76
2022-12-08T01:25:16.906Z,-5.76
2022-12-08T01:27:49.387Z,-5.76
2022-12-08T01:30:22.136Z,-5.76
2022-12-08T01:32:56.816Z,-5.79
2022-12-08T01:35:29.271Z,-5.79
2022-12-08T01:38:01.732Z,-5.79
2022-12-08T01:40:34.173Z,-5.87
2022-12-08T01:43:06.596Z,-5.87
2022-12-08T01:45:39.278Z,-5.80
2022-12-08T01:48:19.167Z,-5.77
2022-12-08T01:50:54.269Z,-5.77
2022-12-08T01:53:30.726Z,-5.76
2022-12-08T01:56:07.316Z,-5.78
2022-12-08T01:58:44.331Z,-5.77
2022-12-08T02:01:17.454Z,-5.77
2022-12-08T02:03:56.471Z,-5.83
2022-12-08T02:06:33.708Z,-5.77
2022-12-08T02:09:06.776Z,-5.79
2022-12-08T02:11:39.233Z,-5.86
2022-12-08T02:14:14.169Z,-5.81
2022-12-08T02:16:54.753Z,-5.82
2022-12-08T02:19:53.656Z,-5.85
2022-12-08T02:22:33.641Z,-5.83
2022-12-08T02:25:15.348Z,-5.92
2022-12-08T02:27:59.824Z,-5.83
2022-12-08T02:30:43.557Z,-5.85
2022-12-08T02:33:42.343Z,-5.85
2022-12-08T02:36:18.250Z,-5.86
2022-12-08T02:39:01.152Z,-5.86
2022-12-08T02:41:41.812Z,-5.87
2022-12-08T02:44:23.380Z,-5.91
2022-12-08T02:46:59.109Z,-5.91
2022-12-08T02:49:34.683Z,-5.93
2022-12-08T02:52:08.801Z,-5.90
2022-12-08T02:54:44.285Z,-5.92
2022-12-08T02:57:32.222Z,-5.96
2022-12-08T03:00:09.222Z,-5.97
2022-12-08T03:02:56.907Z,-5.97
2022-12-08T03:05:45.866Z,-5.98
2022-12-08T03:08:24.464Z,-5.98
2022-12-08T03:11:04.460Z,-5.97
2022-12-08T03:13:44.042Z,-5.97
2022-12-08T03:16:20.687Z,-5.97
2022-12-08T03:18:59.737Z,-5.94
2022-12-08T03:21:36.268Z,-5.93
2022-12-08T03:24:11.326Z,-5.94
2022-12-08T03:26:48.780Z,-5.98
2022-12-08T03:29:21.388Z,-5.98
2022-12-08T03:31:57.969Z,-5.98
2022-12-08T03:34:30.862Z,-5.99
2022-12-08T03:37:04.962Z,-6.05
2022-12-08T03:39:37.406Z,-6.03
2022-12-08T03:42:09.999Z,-6.11
2022-12-08T03:44:42.603Z,-6.09
2022-12-08T03:47:15.165Z,-6.22
2022-12-08T03:49:47.515Z,-6.06
2022-12-08T03:52:21.516Z,-6.03
2022-12-08T03:54:54.038Z,-6.07
2022-12-08T03:57:26.545Z,-6.02
2022-12-08T03:59:58.918Z,-6.06
2022-12-08T04:02:31.476Z,-6.04
2022-12-08T04:05:04.313Z,-6.03
2022-12-08T04:07:38.216Z,-6.03
2022-12-08T04:10:11.268Z,-6.02
2022-12-08T04:12:45.094Z,-6.01
2022-12-08T04:15:17.576Z,-6.03
2022-12-08T04:17:50.092Z,-6.04
2022-12-08T04:20:22.509Z,-6.01
2022-12-08T04:22:56.436Z,-6.03
2022-12-08T04:25:29.073Z,-6.03
2022-12-08T04:28:01.722Z,-6.03
2022-12-08T04:30:34.751Z,-6.02
2022-12-08T04:33:07.391Z,-6.02
2022-12-08T04:35:39.843Z,-6.01
2022-12-08T04:38:14.108Z,-6.00
2022-12-08T04:40:46.575Z,-5.97
2022-12-08T04:43:20.059Z,-5.95
2022-12-08T04:45:52.716Z,-6.00
2022-12-08T04:48:25.212Z,-5.93
2022-12-08T04:50:57.643Z,-5.94
2022-12-08T04:53:31.603Z,-5.96
2022-12-08T04:56:04.425Z,-5.89
2022-12-08T04:58:36.869Z,-5.90
2022-12-08T05:01:09.327Z,-5.91
2022-12-08T05:03:41.949Z,-5.86
2022-12-08T05:06:15.141Z,-5.89
2022-12-08T05:08:49.112Z,-5.90
2022-12-08T05:11:21.487Z,-5.84
2022-12-08T05:13:54.151Z,-5.83
2022-12-08T05:16:26.786Z,-5.85
2022-12-08T05:18:59.232Z,-5.83
2022-12-08T05:21:31.628Z,-5.84
2022-12-08T05:24:06.395Z,-5.80
2022-12-08T05:26:38.969Z,-5.79
2022-12-08T05:29:11.387Z,-5.78
2022-12-08T05:31:43.882Z,-5.79
2022-12-08T05:34:16.703Z,-5.80
2022-12-08T05:36:49.253Z,-5.78
2022-12-08T05:39:23.227Z,-5.77
2022-12-08T05:41:55.556Z,-5.78
2022-12-08T05:44:28.097Z,-5.82
2022-12-08T05:47:00.627Z,-5.81
2022-12-08T05:49:33.095Z,-5.76
2022-12-08T05:52:05.731Z,-5.75
2022-12-08T05:54:39.749Z,-5.81
2022-12-08T05:57:12.289Z,-5.76
2022-12-08T05:59:44.903Z,-5.78
2022-12-08T06:02:17.445Z,-5.70
2022-12-08T06:04:50.062Z,-5.78
2022-12-08T06:07:22.607Z,-5.63
2022-12-08T06:09:56.639Z,-5.61
2022-12-08T06:12:29.036Z,-5.58
2022-12-08T06:15:01.538Z,-5.60
2022-12-08T06:17:36.626Z,-5.56
2022-12-08T06:20:10.053Z,-5.59
2022-12-08T06:22:42.559Z,-5.61
2022-12-08T06:25:16.517Z,-5.68
2022-12-08T06:27:48.963Z,-5.54
2022-12-08T06:30:21.322Z,-5.53
2022-12-08T06:32:53.818Z,-5.59
2022-12-08T06:35:26.301Z,-5.47
2022-12-08T06:37:58.798Z,-5.44
2022-12-08T06:40:32.635Z,-5.43
2022-12-08T06:43:04.987Z,-5.42
2022-12-08T06:45:37.507Z,-5.47
2022-12-08T06:48:09.960Z,-5.42
2022-12-08T06:50:42.621Z,-5.41
2022-12-08T06:53:15.555Z,-5.38
2022-12-08T06:56:00.376Z,-5.37
2022-12-08T06:58:33.389Z,-5.48
2022-12-08T07:01:07.775Z,-5.36
2022-12-08T07:03:41.189Z,-5.32
2022-12-08T07:06:17.007Z,-5.51
2022-12-08T07:08:49.752Z,-5.34
2022-12-08T07:11:23.614Z,-5.29
2022-12-08T07:13:56.971Z,-5.29
2022-12-08T07:16:29.679Z,-5.27
2022-12-08T07:19:02.505Z,-5.25
2022-12-08T07:21:35.091Z,-5.24
2022-12-08T07:24:08.117Z,-5.26
2022-12-08T07:26:42.187Z,-5.26
2022-12-08T07:29:14.704Z,-5.29
2022-12-08T07:31:47.145Z,-5.29
2022-12-08T07:34:19.598Z,-5.25
2022-12-08T07:36:52.154Z,-5.26
2022-12-08T07:39:24.842Z,-5.21
2022-12-08T07:41:58.897Z,-5.19
2022-12-08T07:44:35.164Z,-5.22
2022-12-08T07:47:07.723Z,-5.22
2022-12-08T07:49:40.253Z,-5.21
2022-12-08T07:52:12.800Z,-5.19
2022-12-08T07:54:45.151Z,-5.19
2022-12-08T07:57:19.087Z,-5.23
2022-12-08T07:59:51.557Z,-5.16
2022-12-08T08:02:25.655Z,-5.20
2022-12-08T08:04:58.600Z,-5.22
2022-12-08T08:07:31.406Z,-5.21
2022-12-08T08:10:04.747Z,-5.22
2022-12-08T08:12:42.192Z,-5.26
2022-12-08T08:15:14.671Z,-5.32
2022-12-08T08:17:51.703Z,-5.23
2022-12-08T08:20:24.375Z,-5.22
2022-12-08T08:22:57.619Z,-5.22
2022-12-08T08:25:30.054Z,-5.18
2022-12-08T08:28:04.805Z,-5.19
2022-12-08T08:30:37.361Z,-5.19
2022-12-08T08:33:11.263Z,-5.18
2022-12-08T08:35:43.640Z,-5.14
2022-12-08T08:38:16.124Z,-5.14
2022-12-08T08:40:48.656Z,-5.12
2022-12-08T08:43:36.230Z,-5.09
2022-12-08T08:46:11.231Z,-5.05
2022-12-08T08:48:48.141Z,-5.03
2022-12-08T08:51:20.738Z,-5.04
2022-12-08T08:53:53.926Z,-5.05
2022-12-08T08:56:26.674Z,-5.00
2022-12-08T08:59:03.090Z,-4.95
2022-12-08T09:01:40.528Z,-4.90
2022-12-08T09:04:13.068Z,-4.90
2022-12-08T09:06:45.428Z,-4.87
2022-12-08T09:09:18.544Z,-4.84
2022-12-08T09:11:51.058Z,-4.82
2022-12-08T09:14:25.075Z,-4.83
2022-12-08T09:16:57.536Z,-4.83
2022-12-08T09:19:31.663Z,-4.81
2022-12-08T09:22:05.443Z,-4.76
2022-12-08T09:24:38.062Z,-4.80
2022-12-08T09:27:10.447Z,-4.74
2022-12-08T09:29:45.799Z,-4.75
2022-12-08T09:32:18.319Z,-4.78
2022-12-08T09:34:52.328Z,-4.75
2022-12-08T09:37:24.816Z,-4.73
2022-12-08T09:39:57.719Z,-4.76
2022-12-08T09:42:37.357Z,-4.74
2022-12-08T09:45:13.072Z,-4.73
2022-12-08T09:47:51.959Z,-4.76
2022-12-08T09:50:32.396Z,-4.72
2022-12-08T09:53:09.866Z,-4.71
2022-12-08T09:55:47.080Z,-4.70
2022-12-08T09:58:27.747Z,-4.72
2022-12-08T10:01:03.285Z,-4.68
2022-12-08T10:03:35.916Z,-4.71
2022-12-08T10:06:16.089Z,-4.71
2022-12-08T10:09:00.101Z,-4.69
2022-12-08T10:11:40.667Z,-4.69
2022-12-08T10:14:26.297Z,-4.72
2022-12-08T10:17:10.343Z,-4.74
2022-12-08T10:19:44.534Z,-4.72
2022-12-08T10:22:26.626Z,-4.72
2022-12-08T10:25:12.519Z,-4.73
2022-12-08T10:27:49.550Z,-4.74
2022-12-08T10:30:30.953Z,-4.72
2022-12-08T10:33:14.482Z,-4.71
2022-12-08T10:35:50.286Z,-4.70
2022-12-08T10:38:27.242Z,-4.81
2022-12-08T10:41:07.222Z,-4.72
2022-12-08T10:43:44.194Z,-4.85
2022-12-08T10:46:19.466Z,-4.84
2022-12-08T10:48:55.827Z,-4.68
2022-12-08T10:51:30.814Z,-4.64
2022-12-08T10:54:06.766Z,-4.63
2022-12-08T10:57:05.832Z,-4.61
2022-12-08T10:59:42.871Z,-4.70
2022-12-08T11:02:29.419Z,-5.24
2022-12-08T11:05:04.479Z,-5.09
2022-12-08T11:07:48.075Z,-4.54
2022-12-08T11:10:35.533Z,-4.63
2022-12-08T11:13:23.534Z,-4.53
2022-12-08T11:16:10.904Z,-4.61
2022-12-08T11:18:47.094Z,-4.94
2022-12-08T11:21:21.190Z,-4.50
2022-12-08T11:23:53.853Z,-4.43
2022-12-08T11:26:32.950Z,-4.55
2022-12-08T11:29:05.516Z,-4.41
2022-12-08T11:31:50.035Z,-4.44
2022-12-08T11:34:31.405Z,-4.36
2022-12-08T11:37:11.342Z,-4.32
2022-12-08T11:39:49.478Z,-4.28
2022-12-08T11:42:27.811Z,-4.28
2022-12-08T11:45:08.397Z,-4.25
2022-12-08T11:47:57.240Z,-4.85
2022-12-08T11:50:43.092Z,-4.54
2022-12-08T11:53:38.569Z,-4.66
2022-12-08T11:56:19.288Z,-4.88
2022-12-08T11:58:56.239Z,-4.35
2022-12-08T12:01:28.932Z,-4.30
2022-12-08T12:04:10.839Z,-4.36
2022-12-08T12:07:26.144Z,-4.29
2022-12-08T12:10:37.685Z,-4.27
2022-12-08T12:13:24.459Z,-4.24
2022-12-08T12:16:22.336Z,-4.23
2022-12-08T12:18:57.844Z,-4.25
2022-12-08T12:21:35.045Z,-4.18
2022-12-08T12:24:10.967Z,-4.18
2022-12-08T12:26:56.231Z,-4.16
2022-12-08T12:29:31.775Z,-4.20
2022-12-08T12:32:11.129Z,-4.12
2022-12-08T12:34:49.380Z,-4.12
2022-12-08T12:37:24.459Z,-4.15
2022-12-08T12:40:00.812Z,-4.12
2022-12-08T12:42:40.006Z,-4.13
2022-12-08T12:45:28.829Z,-4.18
2022-12-08T12:48:29.268Z,-4.07
2022-12-08T12:51:48.214Z,-4.13
2022-12-08T12:54:23.297Z,-4.72
2022-12-08T12:57:20.884Z,-4.24
2022-12-08T13:00:09.971Z,-4.04
2022-12-08T13:03:00.063Z,-4.05
2022-12-08T13:05:50.293Z,-4.03
2022-12-08T13:08:26.645Z,-4.02
2022-12-08T13:11:03.314Z,-3.99
2022-12-08T13:13:36.287Z,-3.99
2022-12-08T13:16:21.773Z,-4.03
2022-12-08T13:18:58.770Z,-4.02
2022-12-08T13:21:35.334Z,-3.96
2022-12-08T13:24:20.617Z,-4.01
2022-12-08T13:27:33.224Z,-4.00
2022-12-08T13:30:47.045Z,-3.95
2022-12-08T13:33:31.861Z,-3.96
2022-12-08T13:36:13.093Z,-3.96
2022-12-08T13:38:47.951Z,-3.96
2022-12-08T13:41:24.774Z,-3.97
2022-12-08T13:44:57.111Z,-3.95
2022-12-08T13:47:41.457Z,-3.94
2022-12-08T13:59:31.028Z,-4.56
2022-12-08T14:02:17.891Z,-3.86
2022-12-08T14:08:00.884Z,-3.91
2022-12-08T14:10:51.325Z,-4.32
2022-12-08T14:13:28.157Z,-4.18
2022-12-08T14:16:14.603Z,-4.51
2022-12-08T14:18:47.395Z,-3.91
2022-12-08T14:21:21.150Z,-3.84
2022-12-08T14:23:55.302Z,-3.81
2022-12-08T14:26:33.909Z,-3.77
2022-12-08T14:29:08.684Z,-3.76
2022-12-08T14:31:41.533Z,-3.75
2022-12-08T14:34:31.020Z,-3.74
2022-12-08T14:37:11.404Z,-3.72
2022-12-08T14:39:48.542Z,-3.72
2022-12-08T14:42:25.314Z,-3.93
2022-12-08T14:45:01.119Z,-3.69
2022-12-08T14:47:35.702Z,-3.69
2022-12-08T14:50:40.549Z,-3.71
2022-12-08T14:53:16.245Z,-3.70
2022-12-08T14:55:53.041Z,-3.90
2022-12-08T14:58:32.910Z,-3.80
2022-12-08T15:01:10.599Z,-3.78
2022-12-08T15:03:48.872Z,-3.67
2022-12-08T15:06:25.862Z,-3.73
2022-12-08T15:09:00.387Z,-3.60
2022-12-08T15:11:35.929Z,-3.58
2022-12-08T15:14:27.329Z,-3.58
2022-12-08T15:17:00.084Z,-3.56
2022-12-08T15:19:34.261Z,-3.55
2022-12-08T15:22:13.654Z,-3.54
2022-12-08T15:24:46.139Z,-3.58
2022-12-08T15:27:23.137Z,-3.51
2022-12-08T15:29:55.699Z,-3.63
2022-12-08T15:32:28.267Z,-3.50
2022-12-08T15:35:00.602Z,-3.52
2022-12-08T15:37:35.858Z,-3.54
2022-12-08T15:40:15.504Z,-3.46
2022-12-08T15:42:49.654Z,-3.48
2022-12-08T15:45:28.777Z,-3.49
2022-12-08T15:48:01.308Z,-3.44
2022-12-08T15:50:36.319Z,-3.42
2022-12-08T15:53:10.113Z,-3.40
2022-12-08T15:56:10.793Z,-3.40
2022-12-08T15:58:57.825Z,-3.42
2022-12-08T16:01:35.124Z,-3.45
2022-12-08T16:07:36.507Z,-3.73
2022-12-08T16:10:18.587Z,-3.42
2022-12-08T16:16:16.068Z,-3.39
2022-12-08T16:18:54.909Z,-3.38
2022-12-08T16:22:17.242Z,-3.40
2022-12-08T16:24:24.180Z,-3.29
2022-12-08T16:27:58.645Z,-3.28
2022-12-08T16:29:54.393Z,-3.34
2022-12-08T16:32:28.903Z,-3.32
2022-12-08T16:35:17.379Z,-3.53
2022-12-08T16:37:50.285Z,-3.26
2022-12-08T16:40:22.774Z,-3.25
2022-12-08T16:42:55.365Z,-3.24
2022-12-08T16:45:29.517Z,-3.42
2022-12-08T16:48:03.917Z,-3.23
2022-12-08T16:50:36.623Z,-3.22
2022-12-08T16:53:12.380Z,-3.21
2022-12-08T16:55:49.677Z,-3.20
2022-12-08T16:58:22.528Z,-3.25
2022-12-08T17:00:54.965Z,-3.24
2022-12-08T17:03:30.413Z,-3.24
2022-12-08T17:06:09.204Z,-3.31
2022-12-08T17:08:44.426Z,-3.18
2022-12-08T17:11:28.608Z,-3.19
2022-12-08T17:14:01.172Z,-3.15
2022-12-08T17:16:33.860Z,-3.19
2022-12-08T17:19:08.608Z,-3.18
2022-12-08T17:21:41.318Z,-3.14
2022-12-08T17:24:18.567Z,-3.15
2022-12-08T17:26:54.324Z,-3.12
2022-12-08T17:29:27.140Z,-3.18
2022-12-08T17:32:02.982Z,-3.12
2022-12-08T17:34:37.273Z,-3.17
2022-12-08T17:37:10.393Z,-3.11
2022-12-08T17:39:43.349Z,-3.16
2022-12-08T17:42:25.995Z,-3.11
2022-12-08T17:44:58.787Z,-3.16
2022-12-08T17:47:31.706Z,-3.11
2022-12-08T17:50:07.722Z,-3.15
2022-12-08T17:52:40.434Z,-3.11
2022-12-08T17:55:12.927Z,-3.10
2022-12-08T17:57:45.485Z,-3.10
2022-12-08T18:00:18.971Z,-3.21
2022-12-08T18:02:51.459Z,-3.14
2022-12-08T18:05:25.759Z,-3.08
2022-12-08T18:07:59.241Z,-3.16
2022-12-08T18:10:31.840Z,-3.05
2022-12-08T18:13:04.680Z,-3.13
2022-12-08T18:15:39.301Z,-3.05
2022-12-08T18:18:11.961Z,-3.03
2022-12-08T18:20:46.775Z,-3.01
2022-12-08T18:23:19.372Z,-3.07
2022-12-08T18:25:51.825Z,-3.00
2022-12-08T18:28:24.663Z,-3.07
2022-12-08T18:30:57.337Z,-3.02
2022-12-08T18:33:29.897Z,-3.02
2022-12-08T18:36:07.340Z,-2.97
2022-12-08T18:38:44.234Z,-2.99
2022-12-08T18:41:24.577Z,-2.95
2022-12-08T18:43:57.623Z,-2.94
2022-12-08T18:46:31.661Z,-2.95
2022-12-08T18:49:04.925Z,-2.93
2022-12-08T18:51:39.244Z,-2.93
2022-12-08T18:54:15.780Z,-2.92
2022-12-08T18:56:52.624Z,-2.97
2022-12-08T18:59:38.305Z,-3.02
2022-12-08T19:02:18.747Z,-3.57
2022-12-08T19:04:51.457Z,-3.52
2022-12-08T19:07:25.510Z,-2.87
2022-12-08T19:09:59.553Z,-2.86
2022-12-08T19:12:32.145Z,-2.98
2022-12-08T19:15:08.920Z,-2.95
2022-12-08T19:17:41.943Z,-2.84
2022-12-08T19:20:15.071Z,-2.83
2022-12-08T19:22:49.297Z,-2.89
2022-12-08T19:25:22.078Z,-2.82
2022-12-08T19:27:59.162Z,-2.81
2022-12-08T19:30:32.537Z,-2.80
2022-12-08T19:33:05.825Z,-3.09
2022-12-08T19:35:38.704Z,-3.27
2022-12-08T19:38:15.457Z,-2.78
2022-12-08T19:41:06.766Z,-2.88
2022-12-08T19:43:57.996Z,-2.76
2022-12-08T19:46:38.784Z,-2.75
2022-12-08T19:49:12.734Z,-2.74
2022-12-08T19:51:45.355Z,-2.74
2022-12-08T19:54:19.361Z,-2.80
2022-12-08T19:56:51.955Z,-2.68
2022-12-08T19:59:30.427Z,-2.77
2022-12-08T20:02:05.910Z,-2.80
2022-12-08T20:04:38.732Z,-3.01
2022-12-08T20:07:13.105Z,-2.65
2022-12-08T20:09:49.480Z,-2.69
2022-12-08T20:12:22.141Z,-2.63
2022-12-08T20:14:57.262Z,-2.61
2022-12-08T20:17:31.123Z,-2.62
2022-12-08T20:20:07.362Z,-2.62
2022-12-08T20:22:40.704Z,-2.62
2022-12-08T20:25:15.349Z,-2.75
2022-12-08T20:27:53.575Z,-2.88
2022-12-08T20:30:28.950Z,-2.99
2022-12-08T20:33:01.588Z,-2.58
2022-12-08T20:35:34.436Z,-2.63
2022-12-08T20:38:09.931Z,-2.72
2022-12-08T20:40:44.426Z,-2.55
2022-12-08T20:43:17.174Z,-2.55
2022-12-08T20:45:50.133Z,-2.68
2022-12-08T20:48:25.073Z,-2.59
2022-12-08T20:50:57.841Z,-2.55
2022-12-08T20:53:33.050Z,-2.69
2022-12-08T20:56:07.805Z,-2.88
2022-12-08T20:58:43.195Z,-2.53
2022-12-08T21:01:23.189Z,-3.21
2022-12-08T21:03:57.289Z,-2.50
2022-12-08T21:06:30.282Z,-2.55
2022-12-08T21:09:03.210Z,-2.49
2022-12-08T21:11:37.461Z,-2.49
2022-12-08T21:14:10.230Z,-2.55
2022-12-08T21:16:42.970Z,-2.48
2022-12-08T21:19:16.028Z,-2.46
2022-12-08T21:21:50.858Z,-2.50
2022-12-08T21:24:26.399Z,-2.48
2022-12-08T21:27:03.291Z,-2.69
2022-12-08T21:29:35.910Z,-2.44
2022-12-08T21:32:08.555Z,-2.50
2022-12-08T21:34:42.497Z,-2.43
2022-12-08T21:37:15.286Z,-2.43
2022-12-08T21:39:48.023Z,-2.48
2022-12-08T21:42:40.332Z,-2.49
2022-12-08T21:45:15.469Z,-2.48
2022-12-08T21:47:49.619Z,-2.44
2022-12-08T21:50:22.434Z,-2.44
2022-12-08T21:52:57.752Z,-2.44
2022-12-08T21:55:30.368Z,-2.42
2022-12-08T21:58:04.453Z,-2.49
2022-12-08T22:00:37.105Z,-2.53
2022-12-08T22:03:14.056Z,-2.49
2022-12-08T22:05:46.979Z,-2.53
2022-12-08T22:08:19.785Z,-2.46
2022-12-08T22:10:52.522Z,-2.41
2022-12-08T22:13:26.615Z,-2.40
2022-12-08T22:16:01.730Z,-2.39
2022-12-08T22:18:35.586Z,-2.48
2022-12-08T22:21:09.785Z,-2.39
2022-12-08T22:23:42.610Z,-2.45
2022-12-08T22:26:15.166Z,-2.46
2022-12-08T22:28:49.402Z,-2.50
2022-12-08T22:31:22.238Z,-2.42
2022-12-08T22:33:55.075Z,-2.45
2022-12-08T22:36:28.219Z,-2.43
2022-12-08T22:39:02.060Z,-2.42
2022-12-08T22:41:34.800Z,-2.55
2022-12-08T22:44:09.277Z,-2.45
2022-12-08T22:46:42.115Z,-2.51
2022-12-08T22:49:14.710Z,-2.48
2022-12-08T22:51:47.334Z,-2.47
2022-12-08T22:54:20.000Z,-2.52
2022-12-08T22:56:52.478Z,-2.48
2022-12-08T22:59:26.773Z,-2.50
2022-12-08T23:01:59.839Z,-2.48
2022-12-08T23:04:32.381Z,-2.47
2022-12-08T23:07:05.516Z,-2.49
2022-12-08T23:09:38.446Z,-2.50
2022-12-08T23:12:11.128Z,-2.50
2022-12-08T23:14:45.030Z,-2.50
2022-12-08T23:17:17.769Z,-2.50
2022-12-08T23:19:50.519Z,-2.50
2022-12-08T23:22:23.009Z,-2.51
2022-12-08T23:24:55.723Z,-2.56
2022-12-08T23:27:28.498Z,-2.52
2022-12-08T23:30:03.065Z,-2.52
2022-12-08T23:32:36.583Z,-2.53
2022-12-08T23:35:09.496Z,-2.63
2022-12-08T23:37:42.059Z,-2.54
2022-12-08T23:40:14.747Z,-2.76
2022-12-08T23:42:47.120Z,-2.56
2022-12-08T23:45:21.199Z,-2.55
2022-12-08T23:47:53.708Z,-2.55
2022-12-08T23:50:26.250Z,-2.54
2022-12-08T23:52:58.969Z,-2.64
2022-12-08T23:55:31.495Z,-2.54
2022-12-08T23:58:04.323Z,-2.52
